sensor_id;sensor_type;location;lat;lon;timestamp;temperature;humidity
38183;DHT22;23991;52.430;10.586;2023-09-18T00:01:12;20.20;71.50
38183;DHT22;23991;52.430;10.586;2023-09-18T00:03:37;20.20;71.60
38183;DHT22;23991;52.430;10.586;2023-09-18T00:06:09;20.20;71.70
38183;DHT22;23991;52.430;10.586;2023-09-18T00:08:39;20.20;71.70
38183;DHT22;23991;52.430;10.586;2023-09-18T00:11:05;20.20;71.60
38183;DHT22;23991;52.430;10.586;2023-09-18T00:13:32;20.10;71.80
38183;DHT22;23991;52.430;10.586;2023-09-18T00:15:58;20.10;71.80
38183;DHT22;23991;52.430;10.586;2023-09-18T00:18:25;20.10;72.00
38183;DHT22;23991;52.430;10.586;2023-09-18T00:20:51;20.00;72.20
38183;DHT22;23991;52.430;10.586;2023-09-18T00:23:17;20.00;72.10
38183;DHT22;23991;52.430;10.586;2023-09-18T00:25:43;20.00;72.30
38183;DHT22;23991;52.430;10.586;2023-09-18T00:28:09;19.90;72.50
38183;DHT22;23991;52.430;10.586;2023-09-18T00:30:34;19.90;72.60
38183;DHT22;23991;52.430;10.586;2023-09-18T00:33:00;19.90;72.70
38183;DHT22;23991;52.430;10.586;2023-09-18T00:35:26;19.80;72.90
38183;DHT22;23991;52.430;10.586;2023-09-18T00:37:51;19.80;73.10
38183;DHT22;23991;52.430;10.586;2023-09-18T00:40:18;19.80;73.10
38183;DHT22;23991;52.430;10.586;2023-09-18T00:42:43;19.80;73.20
38183;DHT22;23991;52.430;10.586;2023-09-18T00:45:10;19.80;73.20
38183;DHT22;23991;52.430;10.586;2023-09-18T00:47:36;19.70;73.20
38183;DHT22;23991;52.430;10.586;2023-09-18T00:50:03;19.70;73.40
38183;DHT22;23991;52.430;10.586;2023-09-18T00:52:29;19.70;73.60
38183;DHT22;23991;52.430;10.586;2023-09-18T00:54:56;19.70;73.70
38183;DHT22;23991;52.430;10.586;2023-09-18T00:57:23;19.60;73.60
38183;DHT22;23991;52.430;10.586;2023-09-18T00:59:49;19.60;73.70
38183;DHT22;23991;52.430;10.586;2023-09-18T01:02:15;19.50;73.70
38183;DHT22;23991;52.430;10.586;2023-09-18T01:04:41;19.50;73.80
38183;DHT22;23991;52.430;10.586;2023-09-18T01:07:10;19.50;73.70
38183;DHT22;23991;52.430;10.586;2023-09-18T01:09:36;19.50;73.90
38183;DHT22;23991;52.430;10.586;2023-09-18T01:17:26;19.40;74.30
38183;DHT22;23991;52.430;10.586;2023-09-18T01:19:51;19.40;74.20
38183;DHT22;23991;52.430;10.586;2023-09-18T01:22:18;19.30;74.10
38183;DHT22;23991;52.430;10.586;2023-09-18T01:24:46;19.30;74.00
38183;DHT22;23991;52.430;10.586;2023-09-18T01:27:16;19.30;74.30
38183;DHT22;23991;52.430;10.586;2023-09-18T01:29:43;19.30;74.50
38183;DHT22;23991;52.430;10.586;2023-09-18T01:32:09;19.20;74.60
38183;DHT22;23991;52.430;10.586;2023-09-18T01:34:41;19.20;74.70
38183;DHT22;23991;52.430;10.586;2023-09-18T01:37:10;19.20;74.80
38183;DHT22;23991;52.430;10.586;2023-09-18T01:39:37;19.20;75.00
38183;DHT22;23991;52.430;10.586;2023-09-18T01:42:05;19.20;75.00
38183;DHT22;23991;52.430;10.586;2023-09-18T01:44:35;19.20;75.00
38183;DHT22;23991;52.430;10.586;2023-09-18T01:47:03;19.10;75.00
38183;DHT22;23991;52.430;10.586;2023-09-18T01:49:34;19.10;74.90
38183;DHT22;23991;52.430;10.586;2023-09-18T01:52:01;19.10;75.00
38183;DHT22;23991;52.430;10.586;2023-09-18T01:54:27;19.10;75.30
38183;DHT22;23991;52.430;10.586;2023-09-18T01:56:55;19.10;75.30
38183;DHT22;23991;52.430;10.586;2023-09-18T01:59:22;19.00;75.50
38183;DHT22;23991;52.430;10.586;2023-09-18T02:01:49;19.00;75.60
38183;DHT22;23991;52.430;10.586;2023-09-18T02:04:14;19.00;75.70
38183;DHT22;23991;52.430;10.586;2023-09-18T02:06:40;19.00;75.50
38183;DHT22;23991;52.430;10.586;2023-09-18T02:09:09;19.00;75.70
38183;DHT22;23991;52.430;10.586;2023-09-18T02:11:44;18.90;75.70
38183;DHT22;23991;52.430;10.586;2023-09-18T02:14:10;18.90;75.70
38183;DHT22;23991;52.430;10.586;2023-09-18T02:16:37;18.90;75.80
38183;DHT22;23991;52.430;10.586;2023-09-18T02:19:03;18.90;75.80
38183;DHT22;23991;52.430;10.586;2023-09-18T02:21:30;18.90;75.80
38183;DHT22;23991;52.430;10.586;2023-09-18T02:23:56;18.90;75.80
38183;DHT22;23991;52.430;10.586;2023-09-18T02:26:23;18.80;75.80
38183;DHT22;23991;52.430;10.586;2023-09-18T02:28:49;18.80;75.90
38183;DHT22;23991;52.430;10.586;2023-09-18T02:31:15;18.80;75.90
38183;DHT22;23991;52.430;10.586;2023-09-18T02:33:42;18.80;76.00
38183;DHT22;23991;52.430;10.586;2023-09-18T02:36:08;18.80;76.20
38183;DHT22;23991;52.430;10.586;2023-09-18T02:38:33;18.80;76.20
38183;DHT22;23991;52.430;10.586;2023-09-18T02:41:00;18.80;76.10
38183;DHT22;23991;52.430;10.586;2023-09-18T02:43:25;18.80;76.20
38183;DHT22;23991;52.430;10.586;2023-09-18T02:45:51;18.80;76.40
38183;DHT22;23991;52.430;10.586;2023-09-18T02:48:18;18.70;76.40
38183;DHT22;23991;52.430;10.586;2023-09-18T02:50:43;18.70;76.50
38183;DHT22;23991;52.430;10.586;2023-09-18T02:53:17;18.70;76.50
38183;DHT22;23991;52.430;10.586;2023-09-18T02:55:44;18.70;76.40
38183;DHT22;23991;52.430;10.586;2023-09-18T02:58:09;18.70;76.30
38183;DHT22;23991;52.430;10.586;2023-09-18T03:00:41;18.70;76.50
38183;DHT22;23991;52.430;10.586;2023-09-18T03:03:09;18.70;76.40
38183;DHT22;23991;52.430;10.586;2023-09-18T03:05:34;18.70;76.40
38183;DHT22;23991;52.430;10.586;2023-09-18T03:08:00;18.60;76.50
38183;DHT22;23991;52.430;10.586;2023-09-18T03:10:26;18.60;76.60
38183;DHT22;23991;52.430;10.586;2023-09-18T03:12:51;18.60;76.70
38183;DHT22;23991;52.430;10.586;2023-09-18T03:15:17;18.60;76.70
38183;DHT22;23991;52.430;10.586;2023-09-18T03:17:42;18.60;76.70
38183;DHT22;23991;52.430;10.586;2023-09-18T03:20:09;18.60;76.70
38183;DHT22;23991;52.430;10.586;2023-09-18T03:22:35;18.60;76.70
38183;DHT22;23991;52.430;10.586;2023-09-18T03:25:00;18.50;76.50
38183;DHT22;23991;52.430;10.586;2023-09-18T03:27:26;18.50;76.50
38183;DHT22;23991;52.430;10.586;2023-09-18T03:29:58;18.50;76.60
38183;DHT22;23991;52.430;10.586;2023-09-18T03:32:23;18.50;76.80
38183;DHT22;23991;52.430;10.586;2023-09-18T03:34:53;18.50;76.90
38183;DHT22;23991;52.430;10.586;2023-09-18T03:37:19;18.50;76.80
38183;DHT22;23991;52.430;10.586;2023-09-18T03:39:45;18.40;76.80
38183;DHT22;23991;52.430;10.586;2023-09-18T03:42:10;18.40;76.80
38183;DHT22;23991;52.430;10.586;2023-09-18T03:44:36;18.40;77.00
38183;DHT22;23991;52.430;10.586;2023-09-18T03:47:02;18.30;77.00
38183;DHT22;23991;52.430;10.586;2023-09-18T03:49:29;18.30;77.10
38183;DHT22;23991;52.430;10.586;2023-09-18T03:51:55;18.30;77.00
38183;DHT22;23991;52.430;10.586;2023-09-18T03:54:21;18.30;77.10
38183;DHT22;23991;52.430;10.586;2023-09-18T03:56:47;18.30;77.00
38183;DHT22;23991;52.430;10.586;2023-09-18T03:59:13;18.30;77.10
38183;DHT22;23991;52.430;10.586;2023-09-18T04:01:39;18.30;77.30
38183;DHT22;23991;52.430;10.586;2023-09-18T04:04:05;18.30;77.10
38183;DHT22;23991;52.430;10.586;2023-09-18T04:06:41;18.20;77.10
38183;DHT22;23991;52.430;10.586;2023-09-18T04:09:07;18.20;77.20
38183;DHT22;23991;52.430;10.586;2023-09-18T04:11:33;18.20;77.20
38183;DHT22;23991;52.430;10.586;2023-09-18T04:14:00;18.20;77.40
38183;DHT22;23991;52.430;10.586;2023-09-18T04:16:26;18.20;77.40
38183;DHT22;23991;52.430;10.586;2023-09-18T04:19:01;18.10;77.20
38183;DHT22;23991;52.430;10.586;2023-09-18T04:21:27;18.10;77.10
38183;DHT22;23991;52.430;10.586;2023-09-18T04:23:55;18.10;77.20
38183;DHT22;23991;52.430;10.586;2023-09-18T04:26:25;18.10;77.30
38183;DHT22;23991;52.430;10.586;2023-09-18T04:28:59;18.10;77.30
38183;DHT22;23991;52.430;10.586;2023-09-18T04:31:25;18.10;77.50
38183;DHT22;23991;52.430;10.586;2023-09-18T04:33:52;18.10;77.70
38183;DHT22;23991;52.430;10.586;2023-09-18T04:36:18;18.10;77.80
38183;DHT22;23991;52.430;10.586;2023-09-18T04:38:47;18.20;77.90
38183;DHT22;23991;52.430;10.586;2023-09-18T04:41:14;18.20;77.80
38183;DHT22;23991;52.430;10.586;2023-09-18T04:43:40;18.20;77.70
38183;DHT22;23991;52.430;10.586;2023-09-18T04:46:06;18.20;77.60
38183;DHT22;23991;52.430;10.586;2023-09-18T04:48:32;18.20;77.80
38183;DHT22;23991;52.430;10.586;2023-09-18T04:50:59;18.10;77.90
38183;DHT22;23991;52.430;10.586;2023-09-18T04:53:25;18.10;77.90
38183;DHT22;23991;52.430;10.586;2023-09-18T04:55:52;18.10;77.90
38183;DHT22;23991;52.430;10.586;2023-09-18T04:58:18;18.10;78.10
38183;DHT22;23991;52.430;10.586;2023-09-18T05:00:44;18.00;78.10
38183;DHT22;23991;52.430;10.586;2023-09-18T05:03:10;18.00;78.10
38183;DHT22;23991;52.430;10.586;2023-09-18T05:05:39;18.00;78.10
38183;DHT22;23991;52.430;10.586;2023-09-18T05:08:07;18.00;78.20
38183;DHT22;23991;52.430;10.586;2023-09-18T05:10:36;18.00;78.30
38183;DHT22;23991;52.430;10.586;2023-09-18T05:13:03;18.00;78.10
38183;DHT22;23991;52.430;10.586;2023-09-18T05:15:29;18.10;78.00
38183;DHT22;23991;52.430;10.586;2023-09-18T05:17:56;18.10;78.00
38183;DHT22;23991;52.430;10.586;2023-09-18T05:20:24;18.10;78.10
38183;DHT22;23991;52.430;10.586;2023-09-18T05:22:54;18.20;78.00
38183;DHT22;23991;52.430;10.586;2023-09-18T05:25:25;18.20;77.90
38183;DHT22;23991;52.430;10.586;2023-09-18T05:27:52;18.30;77.70
38183;DHT22;23991;52.430;10.586;2023-09-18T05:30:26;18.40;77.60
38183;DHT22;23991;52.430;10.586;2023-09-18T05:32:54;18.50;77.50
38183;DHT22;23991;52.430;10.586;2023-09-18T05:35:20;18.50;77.50
38183;DHT22;23991;52.430;10.586;2023-09-18T05:37:47;18.70;77.50
38183;DHT22;23991;52.430;10.586;2023-09-18T05:40:13;18.70;77.50
38183;DHT22;23991;52.430;10.586;2023-09-18T05:42:40;18.80;77.50
38183;DHT22;23991;52.430;10.586;2023-09-18T05:45:12;19.00;77.40
38183;DHT22;23991;52.430;10.586;2023-09-18T05:47:38;19.10;77.50
38183;DHT22;23991;52.430;10.586;2023-09-18T05:50:08;19.20;77.40
38183;DHT22;23991;52.430;10.586;2023-09-18T05:52:35;19.30;77.20
38183;DHT22;23991;52.430;10.586;2023-09-18T05:55:04;19.50;77.10
38183;DHT22;23991;52.430;10.586;2023-09-18T05:57:30;19.60;76.70
38183;DHT22;23991;52.430;10.586;2023-09-18T05:59:56;19.70;76.40
38183;DHT22;23991;52.430;10.586;2023-09-18T06:02:23;19.80;76.10
38183;DHT22;23991;52.430;10.586;2023-09-18T06:04:57;19.90;76.10
38183;DHT22;23991;52.430;10.586;2023-09-18T06:07:26;20.10;75.70
38183;DHT22;23991;52.430;10.586;2023-09-18T06:09:52;20.20;75.30
38183;DHT22;23991;52.430;10.586;2023-09-18T06:12:18;20.40;74.80
38183;DHT22;23991;52.430;10.586;2023-09-18T06:14:43;20.60;74.30
38183;DHT22;23991;52.430;10.586;2023-09-18T06:17:10;20.80;74.00
38183;DHT22;23991;52.430;10.586;2023-09-18T06:19:36;20.90;73.60
38183;DHT22;23991;52.430;10.586;2023-09-18T06:22:02;21.20;73.30
38183;DHT22;23991;52.430;10.586;2023-09-18T06:24:27;21.40;72.10
38183;DHT22;23991;52.430;10.586;2023-09-18T06:26:53;21.60;71.60
38183;DHT22;23991;52.430;10.586;2023-09-18T06:29:19;21.70;70.20
38183;DHT22;23991;52.430;10.586;2023-09-18T06:31:46;22.00;69.40
38183;DHT22;23991;52.430;10.586;2023-09-18T06:34:12;22.00;69.00
38183;DHT22;23991;52.430;10.586;2023-09-18T06:36:38;22.20;68.90
38183;DHT22;23991;52.430;10.586;2023-09-18T06:39:03;22.20;69.00
38183;DHT22;23991;52.430;10.586;2023-09-18T06:41:29;22.30;68.80
38183;DHT22;23991;52.430;10.586;2023-09-18T06:43:55;22.40;68.60
38183;DHT22;23991;52.430;10.586;2023-09-18T06:46:22;22.50;68.20
38183;DHT22;23991;52.430;10.586;2023-09-18T06:48:47;22.70;67.90
38183;DHT22;23991;52.430;10.586;2023-09-18T06:51:16;22.90;67.70
38183;DHT22;23991;52.430;10.586;2023-09-18T06:53:43;23.20;67.00
38183;DHT22;23991;52.430;10.586;2023-09-18T06:56:09;23.50;66.10
38183;DHT22;23991;52.430;10.586;2023-09-18T06:58:35;23.80;64.00
38183;DHT22;23991;52.430;10.586;2023-09-18T07:01:00;24.20;63.10
38183;DHT22;23991;52.430;10.586;2023-09-18T07:03:26;24.40;62.20
38183;DHT22;23991;52.430;10.586;2023-09-18T07:05:52;24.60;61.30
38183;DHT22;23991;52.430;10.586;2023-09-18T07:08:17;24.80;60.40
38183;DHT22;23991;52.430;10.586;2023-09-18T07:10:49;25.00;59.90
38183;DHT22;23991;52.430;10.586;2023-09-18T07:13:15;25.20;58.90
38183;DHT22;23991;52.430;10.586;2023-09-18T07:15:41;25.00;59.80
38183;DHT22;23991;52.430;10.586;2023-09-18T07:18:07;25.10;59.40
38183;DHT22;23991;52.430;10.586;2023-09-18T07:20:32;25.20;59.10
38183;DHT22;23991;52.430;10.586;2023-09-18T07:22:59;25.10;59.30
38183;DHT22;23991;52.430;10.586;2023-09-18T07:25:24;25.10;59.20
38183;DHT22;23991;52.430;10.586;2023-09-18T07:27:50;25.20;59.60
38183;DHT22;23991;52.430;10.586;2023-09-18T07:30:15;25.20;59.00
38183;DHT22;23991;52.430;10.586;2023-09-18T07:32:42;25.10;59.10
38183;DHT22;23991;52.430;10.586;2023-09-18T07:35:09;25.20;59.60
38183;DHT22;23991;52.430;10.586;2023-09-18T07:37:35;25.10;59.80
38183;DHT22;23991;52.430;10.586;2023-09-18T07:40:03;25.00;60.10
38183;DHT22;23991;52.430;10.586;2023-09-18T07:42:29;24.90;59.90
38183;DHT22;23991;52.430;10.586;2023-09-18T07:44:55;24.90;59.80
38183;DHT22;23991;52.430;10.586;2023-09-18T07:47:20;24.90;59.90
38183;DHT22;23991;52.430;10.586;2023-09-18T07:49:47;25.00;59.60
38183;DHT22;23991;52.430;10.586;2023-09-18T07:52:13;24.90;60.00
38183;DHT22;23991;52.430;10.586;2023-09-18T07:54:39;24.80;60.30
38183;DHT22;23991;52.430;10.586;2023-09-18T07:57:05;24.80;60.20
38183;DHT22;23991;52.430;10.586;2023-09-18T07:59:35;24.70;60.50
38183;DHT22;23991;52.430;10.586;2023-09-18T08:02:00;24.80;60.30
38183;DHT22;23991;52.430;10.586;2023-09-18T08:04:26;24.90;60.60
38183;DHT22;23991;52.430;10.586;2023-09-18T08:06:52;25.00;60.30
38183;DHT22;23991;52.430;10.586;2023-09-18T08:09:17;25.10;59.60
38183;DHT22;23991;52.430;10.586;2023-09-18T08:11:43;25.10;59.90
38183;DHT22;23991;52.430;10.586;2023-09-18T08:14:09;25.10;59.90
38183;DHT22;23991;52.430;10.586;2023-09-18T08:16:37;25.10;60.30
38183;DHT22;23991;52.430;10.586;2023-09-18T08:19:06;25.20;59.90
38183;DHT22;23991;52.430;10.586;2023-09-18T08:21:32;25.20;60.20
38183;DHT22;23991;52.430;10.586;2023-09-18T08:23:58;25.30;60.00
38183;DHT22;23991;52.430;10.586;2023-09-18T08:26:24;25.60;58.90
38183;DHT22;23991;52.430;10.586;2023-09-18T08:28:51;25.80;58.00
38183;DHT22;23991;52.430;10.586;2023-09-18T08:31:16;25.70;59.30
38183;DHT22;23991;52.430;10.586;2023-09-18T08:33:43;25.80;58.20
38183;DHT22;23991;52.430;10.586;2023-09-18T08:36:09;25.90;58.00
38183;DHT22;23991;52.430;10.586;2023-09-18T08:38:35;26.00;57.50
38183;DHT22;23991;52.430;10.586;2023-09-18T08:41:01;26.00;57.70
38183;DHT22;23991;52.430;10.586;2023-09-18T08:43:29;26.20;57.60
38183;DHT22;23991;52.430;10.586;2023-09-18T08:45:57;26.40;57.30
38183;DHT22;23991;52.430;10.586;2023-09-18T08:48:27;26.60;56.80
38183;DHT22;23991;52.430;10.586;2023-09-18T08:51:03;26.90;56.10
38183;DHT22;23991;52.430;10.586;2023-09-18T08:53:35;27.20;54.30
38183;DHT22;23991;52.430;10.586;2023-09-18T08:56:03;27.60;53.80
38183;DHT22;23991;52.430;10.586;2023-09-18T08:58:34;27.60;52.70
38183;DHT22;23991;52.430;10.586;2023-09-18T09:01:05;27.60;52.70
38183;DHT22;23991;52.430;10.586;2023-09-18T09:03:38;27.50;53.50
38183;DHT22;23991;52.430;10.586;2023-09-18T09:06:06;27.60;52.70
38183;DHT22;23991;52.430;10.586;2023-09-18T09:08:33;27.70;51.60
38183;DHT22;23991;52.430;10.586;2023-09-18T09:10:59;27.80;51.70
38183;DHT22;23991;52.430;10.586;2023-09-18T09:13:25;28.10;51.40
38183;DHT22;23991;52.430;10.586;2023-09-18T09:15:53;28.20;51.40
38183;DHT22;23991;52.430;10.586;2023-09-18T09:18:22;28.40;51.20
38183;DHT22;23991;52.430;10.586;2023-09-18T09:20:57;28.60;50.50
38183;DHT22;23991;52.430;10.586;2023-09-18T09:23:25;28.50;50.90
38183;DHT22;23991;52.430;10.586;2023-09-18T09:25:51;28.50;50.70
38183;DHT22;23991;52.430;10.586;2023-09-18T09:28:29;28.50;50.60
38183;DHT22;23991;52.430;10.586;2023-09-18T09:31:00;28.60;50.00
38183;DHT22;23991;52.430;10.586;2023-09-18T09:33:28;28.40;49.80
38183;DHT22;23991;52.430;10.586;2023-09-18T09:35:55;28.20;50.50
38183;DHT22;23991;52.430;10.586;2023-09-18T09:38:28;28.30;50.80
38183;DHT22;23991;52.430;10.586;2023-09-18T09:40:57;28.40;50.50
38183;DHT22;23991;52.430;10.586;2023-09-18T09:43:26;28.30;50.50
38183;DHT22;23991;52.430;10.586;2023-09-18T09:46:00;28.30;51.10
38183;DHT22;23991;52.430;10.586;2023-09-18T09:48:26;28.20;51.10
38183;DHT22;23991;52.430;10.586;2023-09-18T09:50:52;28.30;51.10
38183;DHT22;23991;52.430;10.586;2023-09-18T09:53:42;28.40;51.40
38183;DHT22;23991;52.430;10.586;2023-09-18T09:56:09;28.70;50.70
38183;DHT22;23991;52.430;10.586;2023-09-18T09:58:34;28.80;49.70
38183;DHT22;23991;52.430;10.586;2023-09-18T10:01:03;28.60;50.00
38183;DHT22;23991;52.430;10.586;2023-09-18T10:03:34;28.70;50.50
38183;DHT22;23991;52.430;10.586;2023-09-18T10:06:02;28.80;50.10
38183;DHT22;23991;52.430;10.586;2023-09-18T10:08:31;28.60;49.90
38183;DHT22;23991;52.430;10.586;2023-09-18T10:11:06;28.50;49.60
38183;DHT22;23991;52.430;10.586;2023-09-18T10:13:40;28.20;49.70
38183;DHT22;23991;52.430;10.586;2023-09-18T10:16:08;28.20;49.10
38183;DHT22;23991;52.430;10.586;2023-09-18T10:21:44;28.20;49.40
38183;DHT22;23991;52.430;10.586;2023-09-18T10:24:20;28.60;48.70
38183;DHT22;23991;52.430;10.586;2023-09-18T10:26:59;28.60;48.80
38183;DHT22;23991;52.430;10.586;2023-09-18T10:29:25;28.60;48.80
38183;DHT22;23991;52.430;10.586;2023-09-18T10:31:52;28.40;48.70
38183;DHT22;23991;52.430;10.586;2023-09-18T10:34:20;28.50;49.00
38183;DHT22;23991;52.430;10.586;2023-09-18T10:36:50;28.40;49.30
38183;DHT22;23991;52.430;10.586;2023-09-18T10:39:17;28.20;49.70
38183;DHT22;23991;52.430;10.586;2023-09-18T10:41:52;28.20;50.60
38183;DHT22;23991;52.430;10.586;2023-09-18T10:44:19;28.20;51.00
38183;DHT22;23991;52.430;10.586;2023-09-18T10:46:49;28.20;50.70
38183;DHT22;23991;52.430;10.586;2023-09-18T10:49:16;28.30;50.30
38183;DHT22;23991;52.430;10.586;2023-09-18T10:51:42;28.20;50.40
38183;DHT22;23991;52.430;10.586;2023-09-18T10:54:10;28.00;50.90
38183;DHT22;23991;52.430;10.586;2023-09-18T10:56:35;28.20;50.70
38183;DHT22;23991;52.430;10.586;2023-09-18T10:59:02;28.20;50.20
38183;DHT22;23991;52.430;10.586;2023-09-18T11:01:31;28.40;50.20
38183;DHT22;23991;52.430;10.586;2023-09-18T11:03:59;28.40;50.00
38183;DHT22;23991;52.430;10.586;2023-09-18T11:06:27;28.30;50.40
38183;DHT22;23991;52.430;10.586;2023-09-18T11:09:02;28.30;50.40
38183;DHT22;23991;52.430;10.586;2023-09-18T11:11:30;28.50;50.10
38183;DHT22;23991;52.430;10.586;2023-09-18T11:13:58;28.70;49.60
38183;DHT22;23991;52.430;10.586;2023-09-18T11:16:35;29.10;49.10
38183;DHT22;23991;52.430;10.586;2023-09-18T11:21:33;29.40;47.90
38183;DHT22;23991;52.430;10.586;2023-09-18T11:24:04;29.30;47.70
38183;DHT22;23991;52.430;10.586;2023-09-18T11:26:32;29.30;47.60
38183;DHT22;23991;52.430;10.586;2023-09-18T11:29:03;29.30;47.80
38183;DHT22;23991;52.430;10.586;2023-09-18T11:34:22;29.70;46.20
38183;DHT22;23991;52.430;10.586;2023-09-18T11:36:49;29.60;46.80
38183;DHT22;23991;52.430;10.586;2023-09-18T11:39:33;29.70;46.90
38183;DHT22;23991;52.430;10.586;2023-09-18T11:42:12;29.70;46.60
38183;DHT22;23991;52.430;10.586;2023-09-18T11:44:41;29.70;46.50
38183;DHT22;23991;52.430;10.586;2023-09-18T11:47:09;29.80;46.30
38183;DHT22;23991;52.430;10.586;2023-09-18T11:49:46;30.30;45.50
38183;DHT22;23991;52.430;10.586;2023-09-18T11:52:16;30.70;44.90
38183;DHT22;23991;52.430;10.586;2023-09-18T11:54:43;30.70;44.00
38183;DHT22;23991;52.430;10.586;2023-09-18T11:57:12;30.60;44.60
38183;DHT22;23991;52.430;10.586;2023-09-18T11:59:40;30.80;44.40
38183;DHT22;23991;52.430;10.586;2023-09-18T12:02:30;30.90;44.40
38183;DHT22;23991;52.430;10.586;2023-09-18T12:05:17;31.20;43.70
38183;DHT22;23991;52.430;10.586;2023-09-18T12:07:44;31.50;44.10
38183;DHT22;23991;52.430;10.586;2023-09-18T12:10:12;31.40;43.60
38183;DHT22;23991;52.430;10.586;2023-09-18T12:12:38;31.20;43.00
38183;DHT22;23991;52.430;10.586;2023-09-18T12:15:04;30.90;43.20
38183;DHT22;23991;52.430;10.586;2023-09-18T12:17:30;30.90;43.10
38183;DHT22;23991;52.430;10.586;2023-09-18T12:19:56;30.90;43.30
38183;DHT22;23991;52.430;10.586;2023-09-18T12:22:29;30.60;43.90
38183;DHT22;23991;52.430;10.586;2023-09-18T12:25:12;30.60;44.00
38183;DHT22;23991;52.430;10.586;2023-09-18T12:27:39;30.70;44.50
38183;DHT22;23991;52.430;10.586;2023-09-18T12:30:06;30.60;44.50
38183;DHT22;23991;52.430;10.586;2023-09-18T12:32:32;30.70;44.00
38183;DHT22;23991;52.430;10.586;2023-09-18T12:35:01;30.90;43.60
38183;DHT22;23991;52.430;10.586;2023-09-18T12:37:26;31.20;43.00
38183;DHT22;23991;52.430;10.586;2023-09-18T12:39:53;31.90;42.40
38183;DHT22;23991;52.430;10.586;2023-09-18T12:42:19;32.40;41.10
38183;DHT22;23991;52.430;10.586;2023-09-18T12:44:49;32.70;40.80
38183;DHT22;23991;52.430;10.586;2023-09-18T12:47:15;32.90;40.00
38183;DHT22;23991;52.430;10.586;2023-09-18T12:49:41;32.70;40.30
38183;DHT22;23991;52.430;10.586;2023-09-18T12:52:06;32.40;40.80
38183;DHT22;23991;52.430;10.586;2023-09-18T12:54:42;32.40;40.90
38183;DHT22;23991;52.430;10.586;2023-09-18T12:57:09;32.20;41.70
38183;DHT22;23991;52.430;10.586;2023-09-18T12:59:36;32.10;42.00
38183;DHT22;23991;52.430;10.586;2023-09-18T13:02:04;32.00;42.00
38183;DHT22;23991;52.430;10.586;2023-09-18T13:04:34;32.00;41.60
38183;DHT22;23991;52.430;10.586;2023-09-18T13:07:09;32.10;41.90
38183;DHT22;23991;52.430;10.586;2023-09-18T13:09:35;32.00;42.30
38183;DHT22;23991;52.430;10.586;2023-09-18T13:12:01;31.70;42.80
38183;DHT22;23991;52.430;10.586;2023-09-18T13:14:27;31.70;43.10
38183;DHT22;23991;52.430;10.586;2023-09-18T13:21:56;31.40;43.20
38183;DHT22;23991;52.430;10.586;2023-09-18T13:24:32;31.20;43.80
38183;DHT22;23991;52.430;10.586;2023-09-18T13:26:58;30.90;43.70
38183;DHT22;23991;52.430;10.586;2023-09-18T13:29:27;30.80;44.20
38183;DHT22;23991;52.430;10.586;2023-09-18T13:31:52;30.70;44.70
38183;DHT22;23991;52.430;10.586;2023-09-18T13:34:18;30.90;44.40
38183;DHT22;23991;52.430;10.586;2023-09-18T13:36:47;30.70;44.30
38183;DHT22;23991;52.430;10.586;2023-09-18T13:39:13;30.50;44.50
38183;DHT22;23991;52.430;10.586;2023-09-18T13:41:42;30.30;45.10
38183;DHT22;23991;52.430;10.586;2023-09-18T13:44:08;30.20;45.00
38183;DHT22;23991;52.430;10.586;2023-09-18T13:46:36;30.20;44.90
38183;DHT22;23991;52.430;10.586;2023-09-18T13:49:05;30.00;45.60
38183;DHT22;23991;52.430;10.586;2023-09-18T13:51:32;30.10;45.40
38183;DHT22;23991;52.430;10.586;2023-09-18T13:53:58;30.00;45.60
38183;DHT22;23991;52.430;10.586;2023-09-18T13:56:24;30.10;45.70
38183;DHT22;23991;52.430;10.586;2023-09-18T13:58:54;30.30;45.60
38183;DHT22;23991;52.430;10.586;2023-09-18T14:01:24;30.30;45.50
38183;DHT22;23991;52.430;10.586;2023-09-18T14:03:51;30.20;45.90
38183;DHT22;23991;52.430;10.586;2023-09-18T14:06:17;30.10;45.80
38183;DHT22;23991;52.430;10.586;2023-09-18T14:08:42;30.20;46.10
38183;DHT22;23991;52.430;10.586;2023-09-18T14:11:08;29.90;46.50
38183;DHT22;23991;52.430;10.586;2023-09-18T14:13:34;30.00;46.50
38183;DHT22;23991;52.430;10.586;2023-09-18T14:16:00;30.00;46.00
38183;DHT22;23991;52.430;10.586;2023-09-18T14:18:29;29.90;46.30
38183;DHT22;23991;52.430;10.586;2023-09-18T14:20:55;29.90;46.40
38183;DHT22;23991;52.430;10.586;2023-09-18T14:23:21;29.70;46.60
38183;DHT22;23991;52.430;10.586;2023-09-18T14:25:47;29.70;45.80
38183;DHT22;23991;52.430;10.586;2023-09-18T14:28:12;29.60;46.40
38183;DHT22;23991;52.430;10.586;2023-09-18T14:30:39;29.30;46.80
38183;DHT22;23991;52.430;10.586;2023-09-18T14:33:05;29.20;47.30
38183;DHT22;23991;52.430;10.586;2023-09-18T14:35:31;29.20;47.10
38183;DHT22;23991;52.430;10.586;2023-09-18T14:37:56;28.90;47.90
38183;DHT22;23991;52.430;10.586;2023-09-18T14:40:22;29.00;48.00
38183;DHT22;23991;52.430;10.586;2023-09-18T14:42:48;28.90;48.00
38183;DHT22;23991;52.430;10.586;2023-09-18T14:45:13;29.00;47.50
38183;DHT22;23991;52.430;10.586;2023-09-18T14:47:39;28.90;47.90
38183;DHT22;23991;52.430;10.586;2023-09-18T14:50:05;29.00;47.50
38183;DHT22;23991;52.430;10.586;2023-09-18T14:52:31;28.90;47.70
38183;DHT22;23991;52.430;10.586;2023-09-18T14:54:58;28.70;48.30
38183;DHT22;23991;52.430;10.586;2023-09-18T14:57:25;28.70;48.50
38183;DHT22;23991;52.430;10.586;2023-09-18T14:59:52;28.50;48.80
38183;DHT22;23991;52.430;10.586;2023-09-18T15:02:18;28.60;48.60
38183;DHT22;23991;52.430;10.586;2023-09-18T15:04:44;28.50;49.10
38183;DHT22;23991;52.430;10.586;2023-09-18T15:07:10;28.60;49.00
38183;DHT22;23991;52.430;10.586;2023-09-18T15:09:37;28.70;48.80
38183;DHT22;23991;52.430;10.586;2023-09-18T15:12:04;28.70;48.90
38183;DHT22;23991;52.430;10.586;2023-09-18T15:14:31;28.60;49.40
38183;DHT22;23991;52.430;10.586;2023-09-18T15:16:58;28.50;49.30
38183;DHT22;23991;52.430;10.586;2023-09-18T15:19:23;28.60;49.20
38183;DHT22;23991;52.430;10.586;2023-09-18T15:21:49;28.60;48.80
38183;DHT22;23991;52.430;10.586;2023-09-18T15:24:18;28.20;49.50
38183;DHT22;23991;52.430;10.586;2023-09-18T15:26:44;28.10;50.00
38183;DHT22;23991;52.430;10.586;2023-09-18T15:29:10;28.10;49.70
38183;DHT22;23991;52.430;10.586;2023-09-18T15:31:36;28.00;49.70
38183;DHT22;23991;52.430;10.586;2023-09-18T15:34:02;28.10;49.30
38183;DHT22;23991;52.430;10.586;2023-09-18T15:36:28;27.90;50.20